sensor_id;sensor_type;location;lat;lon;timestamp;pressure;altitude;pressure_sealevel;temperature;humidity
60479;BME280;46321;48.398;11.754;2023-07-13T00:00:10;96525.41;;;19.22;91.05
60479;BME280;46321;48.398;11.754;2023-07-13T00:02:36;96524.13;;;19.25;90.85
60479;BME280;46321;48.398;11.754;2023-07-13T00:05:01;96532.41;;;19.23;91.46
60479;BME280;46321;48.398;11.754;2023-07-13T00:07:27;96533.31;;;19.17;91.48
60479;BME280;46321;48.398;11.754;2023-07-13T00:09:52;96531.47;;;19.17;92.38
60479;BME280;46321;48.398;11.754;2023-07-13T00:12:24;96525.53;;;19.27;91.44
60479;BME280;46321;48.398;11.754;2023-07-13T00:14:49;96521.56;;;19.30;91.41
60479;BME280;46321;48.398;11.754;2023-07-13T00:17:15;96516.88;;;19.25;91.45
60479;BME280;46321;48.398;11.754;2023-07-13T00:19:40;96522.84;;;19.27;91.76
60479;BME280;46321;48.398;11.754;2023-07-13T00:22:06;96509.53;;;19.20;92.04
60479;BME280;46321;48.398;11.754;2023-07-13T00:24:31;96506.84;;;19.20;92.30
60479;BME280;46321;48.398;11.754;2023-07-13T00:26:57;96503.03;;;19.28;92.57
60479;BME280;46321;48.398;11.754;2023-07-13T00:29:22;96512.47;;;19.31;91.75
60479;BME280;46321;48.398;11.754;2023-07-13T00:31:47;96524.34;;;19.23;91.80
60479;BME280;46321;48.398;11.754;2023-07-13T00:34:12;96528.69;;;19.24;92.47
60479;BME280;46321;48.398;11.754;2023-07-13T00:36:38;96523.53;;;19.22;91.92
60479;BME280;46321;48.398;11.754;2023-07-13T00:39:03;96525.03;;;19.18;92.26
60479;BME280;46321;48.398;11.754;2023-07-13T00:41:29;96512.69;;;19.17;91.89
60479;BME280;46321;48.398;11.754;2023-07-13T00:43:55;96512.69;;;19.17;91.88
60479;BME280;46321;48.398;11.754;2023-07-13T00:46:23;96517.44;;;19.15;92.00
60479;BME280;46321;48.398;11.754;2023-07-13T00:48:49;96527.50;;;19.20;91.35
60479;BME280;46321;48.398;11.754;2023-07-13T00:51:20;96527.97;;;19.17;91.35
60479;BME280;46321;48.398;11.754;2023-07-13T00:53:46;96528.31;;;19.20;90.84
60479;BME280;46321;48.398;11.754;2023-07-13T00:56:12;96527.72;;;19.18;91.24
60479;BME280;46321;48.398;11.754;2023-07-13T00:58:38;96520.56;;;19.12;90.99
60479;BME280;46321;48.398;11.754;2023-07-13T01:01:03;96519.41;;;19.08;91.34
60479;BME280;46321;48.398;11.754;2023-07-13T01:03:29;96521.94;;;19.03;91.59
60479;BME280;46321;48.398;11.754;2023-07-13T01:05:55;96522.75;;;19.03;91.99
60479;BME280;46321;48.398;11.754;2023-07-13T01:08:21;96524.75;;;19.08;91.84
60479;BME280;46321;48.398;11.754;2023-07-13T01:10:53;96528.72;;;19.05;91.77
60479;BME280;46321;48.398;11.754;2023-07-13T01:13:19;96522.09;;;19.08;91.41
60479;BME280;46321;48.398;11.754;2023-07-13T01:15:47;96510.75;;;19.06;91.64
60479;BME280;46321;48.398;11.754;2023-07-13T01:18:16;96502.47;;;19.07;91.17
60479;BME280;46321;48.398;11.754;2023-07-13T01:21:00;96507.50;;;19.04;91.54
60479;BME280;46321;48.398;11.754;2023-07-13T01:23:27;96495.59;;;18.99;91.79
60479;BME280;46321;48.398;11.754;2023-07-13T01:25:53;96506.31;;;18.99;92.14
60479;BME280;46321;48.398;11.754;2023-07-13T01:28:20;96495.22;;;18.96;92.63
60479;BME280;46321;48.398;11.754;2023-07-13T01:30:46;96492.09;;;18.99;92.10
60479;BME280;46321;48.398;11.754;2023-07-13T01:33:17;96495.47;;;18.94;92.20
60479;BME280;46321;48.398;11.754;2023-07-13T01:35:44;96487.19;;;18.96;92.44
60479;BME280;46321;48.398;11.754;2023-07-13T01:38:13;96482.97;;;19.00;92.29
60479;BME280;46321;48.398;11.754;2023-07-13T01:40:39;96489.63;;;18.97;92.38
60479;BME280;46321;48.398;11.754;2023-07-13T01:43:04;96488.25;;;18.95;92.47
60479;BME280;46321;48.398;11.754;2023-07-13T01:45:30;96486.94;;;18.97;92.45
60479;BME280;46321;48.398;11.754;2023-07-13T01:47:55;96489.50;;;18.92;92.81
60479;BME280;46321;48.398;11.754;2023-07-13T01:50:21;96492.88;;;18.87;93.18
60479;BME280;46321;48.398;11.754;2023-07-13T01:52:46;96486.25;;;18.90;93.43
60479;BME280;46321;48.398;11.754;2023-07-13T01:55:11;96491.94;;;18.94;93.05
60479;BME280;46321;48.398;11.754;2023-07-13T01:57:37;96489.84;;;18.96;92.43
60479;BME280;46321;48.398;11.754;2023-07-13T02:00:07;96493.13;;;18.98;92.39
60479;BME280;46321;48.398;11.754;2023-07-13T02:02:32;96491.03;;;19.00;91.95
60479;BME280;46321;48.398;11.754;2023-07-13T02:04:57;96498.63;;;19.03;92.11
60479;BME280;46321;48.398;11.754;2023-07-13T02:07:23;96493.25;;;19.03;91.55
60479;BME280;46321;48.398;11.754;2023-07-13T02:09:48;96500.59;;;18.96;91.88
60479;BME280;46321;48.398;11.754;2023-07-13T02:12:13;96503.84;;;18.98;91.45
60479;BME280;46321;48.398;11.754;2023-07-13T02:14:39;96504.78;;;18.92;92.03
60479;BME280;46321;48.398;11.754;2023-07-13T02:17:05;96505.00;;;18.90;92.22
60479;BME280;46321;48.398;11.754;2023-07-13T02:19:30;96508.38;;;18.85;92.33
60479;BME280;46321;48.398;11.754;2023-07-13T02:21:55;96501.94;;;18.86;91.66
60479;BME280;46321;48.398;11.754;2023-07-13T02:24:21;96512.91;;;18.85;91.67
60479;BME280;46321;48.398;11.754;2023-07-13T02:26:46;96512.91;;;18.85;91.51
60479;BME280;46321;48.398;11.754;2023-07-13T02:29:12;96513.50;;;18.87;91.13
60479;BME280;46321;48.398;11.754;2023-07-13T02:31:37;96507.31;;;18.86;91.22
60479;BME280;46321;48.398;11.754;2023-07-13T02:34:03;96505.09;;;18.83;91.36
60479;BME280;46321;48.398;11.754;2023-07-13T02:36:29;96505.56;;;18.80;91.68
60479;BME280;46321;48.398;11.754;2023-07-13T02:38:55;96517.63;;;18.71;92.34
60479;BME280;46321;48.398;11.754;2023-07-13T02:41:20;96513.09;;;18.71;92.52
60479;BME280;46321;48.398;11.754;2023-07-13T02:43:46;96526.22;;;18.61;93.80
60479;BME280;46321;48.398;11.754;2023-07-13T02:46:11;96516.94;;;18.63;93.51
60479;BME280;46321;48.398;11.754;2023-07-13T02:48:38;96515.88;;;18.64;93.35
60479;BME280;46321;48.398;11.754;2023-07-13T02:51:03;96517.38;;;18.60;93.68
60479;BME280;46321;48.398;11.754;2023-07-13T02:53:29;96516.34;;;18.61;93.46
60479;BME280;46321;48.398;11.754;2023-07-13T02:55:55;96528.69;;;18.62;93.44
60479;BME280;46321;48.398;11.754;2023-07-13T02:58:20;96538.56;;;18.62;93.13
60479;BME280;46321;48.398;11.754;2023-07-13T03:00:47;96541.91;;;18.76;92.55
60479;BME280;46321;48.398;11.754;2023-07-13T03:03:13;96541.56;;;18.72;92.47
60479;BME280;46321;48.398;11.754;2023-07-13T03:05:41;96553.31;;;18.71;92.50
60479;BME280;46321;48.398;11.754;2023-07-13T03:08:10;96549.13;;;18.75;92.46
60479;BME280;46321;48.398;11.754;2023-07-13T03:10:36;96544.59;;;18.76;92.19
60479;BME280;46321;48.398;11.754;2023-07-13T03:13:02;96547.50;;;18.74;92.61
60479;BME280;46321;48.398;11.754;2023-07-13T03:15:27;96549.72;;;18.77;92.75
60479;BME280;46321;48.398;11.754;2023-07-13T03:17:53;96545.25;;;18.71;93.05
60479;BME280;46321;48.398;11.754;2023-07-13T03:20:18;96549.00;;;18.70;93.22
60479;BME280;46321;48.398;11.754;2023-07-13T03:22:44;96549.22;;;18.69;93.86
60479;BME280;46321;48.398;11.754;2023-07-13T03:25:10;96559.66;;;18.77;93.54
60479;BME280;46321;48.398;11.754;2023-07-13T03:27:36;96560.69;;;18.76;93.53
60479;BME280;46321;48.398;11.754;2023-07-13T03:30:02;96553.81;;;18.80;92.93
60479;BME280;46321;48.398;11.754;2023-07-13T03:32:27;96557.91;;;18.83;92.68
60479;BME280;46321;48.398;11.754;2023-07-13T03:34:52;96555.53;;;18.74;93.37
60479;BME280;46321;48.398;11.754;2023-07-13T03:37:18;96560.00;;;18.81;93.46
60479;BME280;46321;48.398;11.754;2023-07-13T03:39:43;96558.13;;;18.81;93.39
60479;BME280;46321;48.398;11.754;2023-07-13T03:42:08;96563.94;;;18.78;93.92
60479;BME280;46321;48.398;11.754;2023-07-13T03:44:34;96566.38;;;18.80;93.93
60479;BME280;46321;48.398;11.754;2023-07-13T03:47:00;96572.13;;;18.83;93.81
60479;BME280;46321;48.398;11.754;2023-07-13T03:49:25;96566.97;;;18.82;93.77
60479;BME280;46321;48.398;11.754;2023-07-13T03:51:50;96568.72;;;18.76;94.23
60479;BME280;46321;48.398;11.754;2023-07-13T03:54:16;96572.56;;;18.80;94.00
60479;BME280;46321;48.398;11.754;2023-07-13T03:56:41;96572.00;;;18.78;94.04
60479;BME280;46321;48.398;11.754;2023-07-13T03:59:06;96566.84;;;18.76;94.03
60479;BME280;46321;48.398;11.754;2023-07-13T04:01:31;96570.38;;;18.77;94.01
60479;BME280;46321;48.398;11.754;2023-07-13T04:03:57;96572.66;;;18.73;94.46
60479;BME280;46321;48.398;11.754;2023-07-13T04:06:26;96573.25;;;18.75;94.45
60479;BME280;46321;48.398;11.754;2023-07-13T04:08:54;96567.22;;;18.80;94.28
60479;BME280;46321;48.398;11.754;2023-07-13T04:11:21;96577.84;;;18.87;93.77
60479;BME280;46321;48.398;11.754;2023-07-13T04:13:47;96576.66;;;18.83;93.61
60479;BME280;46321;48.398;11.754;2023-07-13T04:16:14;96581.81;;;18.84;94.05
60479;BME280;46321;48.398;11.754;2023-07-13T04:18:39;96583.22;;;18.87;94.13
60479;BME280;46321;48.398;11.754;2023-07-13T04:21:05;96577.25;;;18.85;93.86
60479;BME280;46321;48.398;11.754;2023-07-13T04:23:30;96572.56;;;18.80;93.48
60479;BME280;46321;48.398;11.754;2023-07-13T04:25:55;96576.09;;;18.81;93.96
60479;BME280;46321;48.398;11.754;2023-07-13T04:28:22;96580.38;;;18.82;93.72
60479;BME280;46321;48.398;11.754;2023-07-13T04:30:48;96585.75;;;18.82;93.31
60479;BME280;46321;48.398;11.754;2023-07-13T04:33:14;96591.00;;;18.76;94.49
60479;BME280;46321;48.398;11.754;2023-07-13T04:35:39;96590.53;;;18.80;93.96
60479;BME280;46321;48.398;11.754;2023-07-13T04:38:04;96598.72;;;18.85;93.46
60479;BME280;46321;48.398;11.754;2023-07-13T04:40:30;96598.13;;;18.83;93.58
60479;BME280;46321;48.398;11.754;2023-07-13T04:42:55;96602.91;;;18.81;93.85
60479;BME280;46321;48.398;11.754;2023-07-13T04:45:21;96601.16;;;18.86;92.94
60479;BME280;46321;48.398;11.754;2023-07-13T04:47:46;96598.03;;;18.90;92.07
60479;BME280;46321;48.398;11.754;2023-07-13T04:50:13;96598.03;;;18.90;91.99
60479;BME280;46321;48.398;11.754;2023-07-13T04:52:43;96610.03;;;18.87;92.23
60479;BME280;46321;48.398;11.754;2023-07-13T04:55:09;96607.59;;;18.85;92.59
60479;BME280;46321;48.398;11.754;2023-07-13T04:57:34;96605.56;;;18.81;92.87
60479;BME280;46321;48.398;11.754;2023-07-13T04:59:59;96609.44;;;18.85;92.83
60479;BME280;46321;48.398;11.754;2023-07-13T05:02:26;96608.84;;;18.83;92.52
60479;BME280;46321;48.398;11.754;2023-07-13T05:04:53;96617.47;;;18.85;92.40
60479;BME280;46321;48.398;11.754;2023-07-13T05:07:18;96618.47;;;18.91;92.56
60479;BME280;46321;48.398;11.754;2023-07-13T05:09:43;96619.06;;;18.93;92.50
60479;BME280;46321;48.398;11.754;2023-07-13T05:12:09;96619.84;;;18.93;92.51
60479;BME280;46321;48.398;11.754;2023-07-13T05:14:35;96621.94;;;18.91;92.73
60479;BME280;46321;48.398;11.754;2023-07-13T05:17:00;96624.94;;;18.83;93.49
60479;BME280;46321;48.398;11.754;2023-07-13T05:19:26;96633.50;;;18.92;93.19
60479;BME280;46321;48.398;11.754;2023-07-13T05:21:51;96640.94;;;18.90;92.78
60479;BME280;46321;48.398;11.754;2023-07-13T05:24:16;96647.72;;;18.92;92.50
60479;BME280;46321;48.398;11.754;2023-07-13T05:26:42;96638.63;;;18.93;92.32
60479;BME280;46321;48.398;11.754;2023-07-13T05:29:07;96646.66;;;18.93;91.89
60479;BME280;46321;48.398;11.754;2023-07-13T05:31:32;96641.78;;;18.90;91.84
60479;BME280;46321;48.398;11.754;2023-07-13T05:33:57;96637.00;;;18.92;92.09
60479;BME280;46321;48.398;11.754;2023-07-13T05:36:23;96639.09;;;18.90;91.88
60479;BME280;46321;48.398;11.754;2023-07-13T05:38:48;96640.28;;;18.94;91.70
60479;BME280;46321;48.398;11.754;2023-07-13T05:41:13;96637.59;;;18.94;90.73
60479;BME280;46321;48.398;11.754;2023-07-13T05:43:38;96633.84;;;18.95;90.49
60479;BME280;46321;48.398;11.754;2023-07-13T05:46:04;96636.31;;;18.97;90.53
60479;BME280;46321;48.398;11.754;2023-07-13T05:48:29;96635.25;;;18.98;89.95
60479;BME280;46321;48.398;11.754;2023-07-13T05:50:54;96642.03;;;19.00;89.30
60479;BME280;46321;48.398;11.754;2023-07-13T05:53:19;96637.28;;;19.03;88.75
60479;BME280;46321;48.398;11.754;2023-07-13T05:55:46;96643.31;;;18.98;87.29
60479;BME280;46321;48.398;11.754;2023-07-13T05:58:13;96645.41;;;18.96;87.64
60479;BME280;46321;48.398;11.754;2023-07-13T06:00:38;96641.91;;;18.95;86.52
60479;BME280;46321;48.398;11.754;2023-07-13T06:03:05;96641.53;;;18.92;86.48
60479;BME280;46321;48.398;11.754;2023-07-13T06:05:32;96653.84;;;18.99;86.74
60479;BME280;46321;48.398;11.754;2023-07-13T06:07:59;96652.25;;;19.10;86.90
60479;BME280;46321;48.398;11.754;2023-07-13T06:10:24;96663.44;;;19.26;86.29
60479;BME280;46321;48.398;11.754;2023-07-13T06:12:49;96661.75;;;19.44;86.08
60479;BME280;46321;48.398;11.754;2023-07-13T06:15:15;96665.16;;;19.63;84.63
60479;BME280;46321;48.398;11.754;2023-07-13T06:17:41;96662.03;;;19.78;83.92
60479;BME280;46321;48.398;11.754;2023-07-13T06:20:07;96659.72;;;19.82;82.18
60479;BME280;46321;48.398;11.754;2023-07-13T06:22:32;96660.41;;;19.89;81.62
60479;BME280;46321;48.398;11.754;2023-07-13T06:24:57;96660.78;;;20.05;77.89
60479;BME280;46321;48.398;11.754;2023-07-13T06:27:22;96667.75;;;20.25;77.19
60479;BME280;46321;48.398;11.754;2023-07-13T06:29:48;96666.91;;;20.36;76.56
60479;BME280;46321;48.398;11.754;2023-07-13T06:32:13;96676.00;;;20.59;77.04
60479;BME280;46321;48.398;11.754;2023-07-13T06:34:38;96670.06;;;20.57;72.26
60479;BME280;46321;48.398;11.754;2023-07-13T06:37:04;96669.03;;;20.58;70.36
60479;BME280;46321;48.398;11.754;2023-07-13T06:39:29;96672.16;;;20.67;71.09
60479;BME280;46321;48.398;11.754;2023-07-13T06:41:54;96672.25;;;20.85;70.29
60479;BME280;46321;48.398;11.754;2023-07-13T06:44:20;96674.91;;;20.97;70.60
60479;BME280;46321;48.398;11.754;2023-07-13T06:46:45;96670.59;;;21.08;68.57
60479;BME280;46321;48.398;11.754;2023-07-13T06:49:10;96664.56;;;21.17;67.19
60479;BME280;46321;48.398;11.754;2023-07-13T06:51:36;96669.81;;;21.24;65.05
60479;BME280;46321;48.398;11.754;2023-07-13T06:54:01;96680.69;;;21.30;65.44
60479;BME280;46321;48.398;11.754;2023-07-13T06:56:26;96679.84;;;21.29;65.21
60479;BME280;46321;48.398;11.754;2023-07-13T06:58:52;96686.81;;;21.42;66.55
60479;BME280;46321;48.398;11.754;2023-07-13T07:01:17;96695.81;;;21.48;64.36
60479;BME280;46321;48.398;11.754;2023-07-13T07:03:42;96696.78;;;21.42;63.27
60479;BME280;46321;48.398;11.754;2023-07-13T07:06:19;96696.03;;;21.46;62.30
60479;BME280;46321;48.398;11.754;2023-07-13T07:08:45;96698.53;;;21.48;62.21
60479;BME280;46321;48.398;11.754;2023-07-13T07:11:17;96696.41;;;21.50;61.45
60479;BME280;46321;48.398;11.754;2023-07-13T07:13:43;96693.16;;;21.65;62.98
60479;BME280;46321;48.398;11.754;2023-07-13T07:16:08;96698.16;;;21.73;61.30
60479;BME280;46321;48.398;11.754;2023-07-13T07:18:34;96713.56;;;21.61;59.74
60479;BME280;46321;48.398;11.754;2023-07-13T07:20:59;96704.25;;;21.39;60.45
60479;BME280;46321;48.398;11.754;2023-07-13T07:23:24;96706.31;;;21.32;60.52
60479;BME280;46321;48.398;11.754;2023-07-13T07:25:50;96712.97;;;21.30;61.00
60479;BME280;46321;48.398;11.754;2023-07-13T07:28:17;96709.88;;;21.50;61.45
60479;BME280;46321;48.398;11.754;2023-07-13T07:30:45;96707.06;;;21.45;61.40
60479;BME280;46321;48.398;11.754;2023-07-13T07:33:11;96713.44;;;21.26;60.21
60479;BME280;46321;48.398;11.754;2023-07-13T07:35:36;96705.72;;;21.30;60.94
60479;BME280;46321;48.398;11.754;2023-07-13T07:38:02;96710.75;;;21.26;61.07
60479;BME280;46321;48.398;11.754;2023-07-13T07:40:27;96716.81;;;21.34;61.22
60479;BME280;46321;48.398;11.754;2023-07-13T07:42:52;96713.41;;;21.38;61.69
60479;BME280;46321;48.398;11.754;2023-07-13T07:45:18;96721.50;;;21.38;61.52
60479;BME280;46321;48.398;11.754;2023-07-13T07:47:43;96727.44;;;21.41;62.84
60479;BME280;46321;48.398;11.754;2023-07-13T07:50:09;96726.41;;;21.42;62.29
60479;BME280;46321;48.398;11.754;2023-07-13T07:52:35;96723.31;;;21.50;61.32
60479;BME280;46321;48.398;11.754;2023-07-13T07:55:00;96721.34;;;21.45;62.07
60479;BME280;46321;48.398;11.754;2023-07-13T07:57:26;96727.56;;;21.46;62.20
60479;BME280;46321;48.398;11.754;2023-07-13T07:59:51;96733.28;;;21.49;61.41
60479;BME280;46321;48.398;11.754;2023-07-13T08:02:16;96733.53;;;21.48;60.62
60479;BME280;46321;48.398;11.754;2023-07-13T08:04:41;96740.19;;;21.45;61.71
60479;BME280;46321;48.398;11.754;2023-07-13T08:07:07;96740.78;;;21.47;61.63
60479;BME280;46321;48.398;11.754;2023-07-13T08:09:33;96741.06;;;21.63;61.67
60479;BME280;46321;48.398;11.754;2023-07-13T08:11:58;96742.94;;;21.62;60.34
60479;BME280;46321;48.398;11.754;2023-07-13T08:14:23;96755.28;;;21.76;59.37
60479;BME280;46321;48.398;11.754;2023-07-13T08:16:49;96756.22;;;21.81;59.41
60479;BME280;46321;48.398;11.754;2023-07-13T08:19:14;96751.19;;;21.85;59.91
60479;BME280;46321;48.398;11.754;2023-07-13T08:21:40;96757.38;;;21.85;57.93
60479;BME280;46321;48.398;11.754;2023-07-13T08:24:07;96759.72;;;21.82;57.59
60479;BME280;46321;48.398;11.754;2023-07-13T08:26:32;96765.59;;;21.79;57.02
60479;BME280;46321;48.398;11.754;2023-07-13T08:28:58;96767.56;;;21.83;59.19
60479;BME280;46321;48.398;11.754;2023-07-13T08:31:23;96771.91;;;21.84;58.41
60479;BME280;46321;48.398;11.754;2023-07-13T08:33:48;96769.53;;;21.59;58.75
60479;BME280;46321;48.398;11.754;2023-07-13T08:36:14;96772.50;;;21.45;58.66
60479;BME280;46321;48.398;11.754;2023-07-13T08:38:39;96780.34;;;21.47;57.94
60479;BME280;46321;48.398;11.754;2023-07-13T08:41:14;96785.16;;;21.33;59.58
60479;BME280;46321;48.398;11.754;2023-07-13T08:43:41;96784.50;;;21.13;57.81
60479;BME280;46321;48.398;11.754;2023-07-13T08:46:58;96781.22;;;21.23;57.84
60479;BME280;46321;48.398;11.754;2023-07-13T08:49:10;96787.06;;;21.20;57.18
60479;BME280;46321;48.398;11.754;2023-07-13T08:54:09;96787.66;;;21.22;55.33
60479;BME280;46321;48.398;11.754;2023-07-13T08:56:36;96784.25;;;21.27;53.86
60479;BME280;46321;48.398;11.754;2023-07-13T08:59:11;96789.50;;;21.34;53.38
60479;BME280;46321;48.398;11.754;2023-07-13T09:05:18;96797.00;;;21.32;55.43
60479;BME280;46321;48.398;11.754;2023-07-13T09:08:09;96793.16;;;21.27;54.68
60479;BME280;46321;48.398;11.754;2023-07-13T09:10:52;96798.16;;;21.24;55.49
60479;BME280;46321;48.398;11.754;2023-07-13T09:13:36;96799.50;;;21.21;55.25
60479;BME280;46321;48.398;11.754;2023-07-13T09:16:04;96798.44;;;21.10;56.20
60479;BME280;46321;48.398;11.754;2023-07-13T09:18:34;96794.22;;;21.02;56.07
60479;BME280;46321;48.398;11.754;2023-07-13T09:21:04;96799.03;;;21.00;56.91
60479;BME280;46321;48.398;11.754;2023-07-13T09:23:33;96795.75;;;21.10;57.20
60479;BME280;46321;48.398;11.754;2023-07-13T09:26:22;96796.22;;;21.19;56.07
60479;BME280;46321;48.398;11.754;2023-07-13T09:28:51;96790.91;;;21.24;57.05
60479;BME280;46321;48.398;11.754;2023-07-13T09:31:28;96799.81;;;21.25;56.59
60479;BME280;46321;48.398;11.754;2023-07-13T09:33:57;96792.91;;;21.17;56.48
60479;BME280;46321;48.398;11.754;2023-07-13T09:36:27;96791.63;;;21.32;57.08
60479;BME280;46321;48.398;11.754;2023-07-13T09:39:05;96795.09;;;21.44;57.66
60479;BME280;46321;48.398;11.754;2023-07-13T09:41:57;96792.50;;;21.49;56.94
60479;BME280;46321;48.398;11.754;2023-07-13T09:44:34;96795.94;;;21.86;57.35
60479;BME280;46321;48.398;11.754;2023-07-13T09:47:00;96794.97;;;22.10;55.60
60479;BME280;46321;48.398;11.754;2023-07-13T09:49:37;96798.19;;;22.24;54.54
60479;BME280;46321;48.398;11.754;2023-07-13T09:52:06;96793.44;;;22.65;53.58
60479;BME280;46321;48.398;11.754;2023-07-13T09:54:36;96784.56;;;23.22;52.49
60479;BME280;46321;48.398;11.754;2023-07-13T09:57:03;96791.78;;;23.39;50.86
60479;BME280;46321;48.398;11.754;2023-07-13T09:59:34;96791.28;;;23.42;51.02
60479;BME280;46321;48.398;11.754;2023-07-13T10:01:59;96799.31;;;23.37;50.33
60479;BME280;46321;48.398;11.754;2023-07-13T10:04:32;96793.84;;;23.31;49.44
60479;BME280;46321;48.398;11.754;2023-07-13T10:07:08;96797.19;;;23.39;51.24
60479;BME280;46321;48.398;11.754;2023-07-13T10:09:34;96789.88;;;23.56;49.81
60479;BME280;46321;48.398;11.754;2023-07-13T10:11:59;96789.59;;;23.81;48.82
60479;BME280;46321;48.398;11.754;2023-07-13T10:14:25;96791.69;;;24.01;48.66
60479;BME280;46321;48.398;11.754;2023-07-13T10:16:58;96787.75;;;24.42;47.13
60479;BME280;46321;48.398;11.754;2023-07-13T10:19:29;96790.91;;;24.66;45.61
60479;BME280;46321;48.398;11.754;2023-07-13T10:21:58;96790.63;;;25.11;48.25
60479;BME280;46321;48.398;11.754;2023-07-13T10:24:35;96785.56;;;25.25;44.44
60479;BME280;46321;48.398;11.754;2023-07-13T10:27:17;96790.72;;;25.22;43.29
60479;BME280;46321;48.398;11.754;2023-07-13T10:29:53;96796.31;;;25.10;42.62
60479;BME280;46321;48.398;11.754;2023-07-13T10:32:24;96793.34;;;25.11;43.06
60479;BME280;46321;48.398;11.754;2023-07-13T10:34:50;96790.72;;;25.27;42.92
60479;BME280;46321;48.398;11.754;2023-07-13T10:37:23;96792.56;;;25.16;43.71
60479;BME280;46321;48.398;11.754;2023-07-13T10:39:52;96796.13;;;25.22;43.39
60479;BME280;46321;48.398;11.754;2023-07-13T10:42:27;96806.94;;;25.16;42.21
60479;BME280;46321;48.398;11.754;2023-07-13T10:44:53;96791.22;;;25.13;41.86
60479;BME280;46321;48.398;11.754;2023-07-13T10:47:19;96793.41;;;25.22;42.17
60479;BME280;46321;48.398;11.754;2023-07-13T10:49:45;96787.56;;;24.97;42.66
60479;BME280;46321;48.398;11.754;2023-07-13T10:55:54;96785.78;;;24.70;42.99
60479;BME280;46321;48.398;11.754;2023-07-13T11:01:19;96784.97;;;25.13;42.66
60479;BME280;46321;48.398;11.754;2023-07-13T11:03:50;96781.75;;;25.21;42.73
60479;BME280;46321;48.398;11.754;2023-07-13T11:09:17;96782.34;;;25.34;43.40
60479;BME280;46321;48.398;11.754;2023-07-13T11:11:43;96780.34;;;25.72;42.35
60479;BME280;46321;48.398;11.754;2023-07-13T11:14:41;96773.91;;;26.00;41.91
60479;BME280;46321;48.398;11.754;2023-07-13T11:22:51;96783.44;;;26.23;40.07
60479;BME280;46321;48.398;11.754;2023-07-13T11:27:51;96787.75;;;26.24;40.21
60479;BME280;46321;48.398;11.754;2023-07-13T11:30:22;96789.38;;;25.94;41.46
60479;BME280;46321;48.398;11.754;2023-07-13T11:33:20;96786.91;;;26.08;40.80
60479;BME280;46321;48.398;11.754;2023-07-13T11:36:10;96785.31;;;26.12;41.78
60479;BME280;46321;48.398;11.754;2023-07-13T11:38:41;96787.75;;;26.19;41.33
60479;BME280;46321;48.398;11.754;2023-07-13T11:41:19;96785.53;;;25.90;41.93
60479;BME280;46321;48.398;11.754;2023-07-13T11:43:45;96782.31;;;25.98;39.43
60479;BME280;46321;48.398;11.754;2023-07-13T11:46:26;96777.19;;;26.17;41.27
60479;BME280;46321;48.398;11.754;2023-07-13T11:48:53;96782.31;;;25.98;41.11
60479;BME280;46321;48.398;11.754;2023-07-13T11:51:30;96781.75;;;26.01;41.61
60479;BME280;46321;48.398;11.754;2023-07-13T11:54:00;96786.06;;;25.81;42.06
60479;BME280;46321;48.398;11.754;2023-07-13T11:56:26;96777.94;;;25.81;40.79
60479;BME280;46321;48.398;11.754;2023-07-13T11:58:55;96774.16;;;25.88;41.30
60479;BME280;46321;48.398;11.754;2023-07-13T12:01:24;96763.88;;;25.95;42.35
60479;BME280;46321;48.398;11.754;2023-07-13T12:03:51;96761.16;;;25.84;42.30
60479;BME280;46321;48.398;11.754;2023-07-13T12:08:59;96757.63;;;25.89;41.22
60479;BME280;46321;48.398;11.754;2023-07-13T12:11:26;96756.66;;;25.42;39.75
60479;BME280;46321;48.398;11.754;2023-07-13T12:13:52;96753.06;;;25.20;40.36
60479;BME280;46321;48.398;11.754;2023-07-13T12:16:26;96756.09;;;25.34;41.33
60479;BME280;46321;48.398;11.754;2023-07-13T12:18:53;96753.47;;;25.60;41.75
60479;BME280;46321;48.398;11.754;2023-07-13T12:21:19;96750.28;;;25.79;41.27
60479;BME280;46321;48.398;11.754;2023-07-13T12:23:48;96750.00;;;25.70;39.26
60479;BME280;46321;48.398;11.754;2023-07-13T12:26:15;96748.09;;;25.71;38.15
60479;BME280;46321;48.398;11.754;2023-07-13T12:28:54;96746.44;;;25.70;38.30
60479;BME280;46321;48.398;11.754;2023-07-13T12:33:57;96742.06;;;25.58;38.20
60479;BME280;46321;48.398;11.754;2023-07-13T12:36:23;96738.00;;;25.61;39.61
60479;BME280;46321;48.398;11.754;2023-07-13T12:38:48;96734.25;;;25.67;39.64
60479;BME280;46321;48.398;11.754;2023-07-13T12:41:14;96730.44;;;25.58;38.73
60479;BME280;46321;48.398;11.754;2023-07-13T12:43:40;96732.34;;;25.63;39.81
60479;BME280;46321;48.398;11.754;2023-07-13T12:46:20;96728.03;;;25.67;37.78
60479;BME280;46321;48.398;11.754;2023-07-13T12:48:53;96732.06;;;25.59;38.41
60479;BME280;46321;48.398;11.754;2023-07-13T12:51:22;96728.59;;;25.79;37.95
60479;BME280;46321;48.398;11.754;2023-07-13T12:53:55;96724.75;;;25.70;38.40
60479;BME280;46321;48.398;11.754;2023-07-13T12:56:23;96733.97;;;25.69;38.33
60479;BME280;46321;48.398;11.754;2023-07-13T12:58:50;96730.22;;;25.75;39.56
60479;BME280;46321;48.398;11.754;2023-07-13T13:01:21;96730.72;;;25.61;37.71
60479;BME280;46321;48.398;11.754;2023-07-13T13:03:49;96721.75;;;25.61;38.06
60479;BME280;46321;48.398;11.754;2023-07-13T13:08:45;96721.84;;;25.87;38.08
60479;BME280;46321;48.398;11.754;2023-07-13T13:11:11;96719.38;;;25.86;39.43
60479;BME280;46321;48.398;11.754;2023-07-13T13:13:36;96711.47;;;25.58;38.04
60479;BME280;46321;48.398;11.754;2023-07-13T13:16:26;96706.84;;;25.48;38.20
60479;BME280;46321;48.398;11.754;2023-07-13T13:18:57;96708.69;;;25.26;38.52
60479;BME280;46321;48.398;11.754;2023-07-13T13:21:24;96707.34;;;25.39;39.21
60479;BME280;46321;48.398;11.754;2023-07-13T13:23:51;96712.56;;;25.62;40.04